sensor_id;sensor_type;location;lat;lon;timestamp;P1;durP1;ratioP1;P2;durP2;ratioP2
1475;SDS011;730;48.870;12.542;2022-11-15T00:00:53;13.90;;;11.10;;
1475;SDS011;730;48.870;12.542;2022-11-15T00:03:21;11.40;;;10.20;;
1475;SDS011;730;48.870;12.542;2022-11-15T00:05:49;11.40;;;10.17;;
1475;SDS011;730;48.870;12.542;2022-11-15T00:08:15;12.63;;;11.10;;
1475;SDS011;730;48.870;12.542;2022-11-15T00:10:41;13.30;;;10.30;;
1475;SDS011;730;48.870;12.542;2022-11-15T00:13:09;11.93;;;10.73;;
1475;SDS011;730;48.870;12.542;2022-11-15T00:15:37;13.77;;;11.93;;
1475;SDS011;730;48.870;12.542;2022-11-15T00:18:04;11.65;;;10.13;;
1475;SDS011;730;48.870;12.542;2022-11-15T00:20:34;13.48;;;10.85;;
1475;SDS011;730;48.870;12.542;2022-11-15T00:23:02;11.47;;;10.13;;
1475;SDS011;730;48.870;12.542;2022-11-15T00:25:29;11.50;;;10.25;;
1475;SDS011;730;48.870;12.542;2022-11-15T00:27:56;12.02;;;10.80;;
1475;SDS011;730;48.870;12.542;2022-11-15T00:30:23;11.17;;;10.10;;
1475;SDS011;730;48.870;12.542;2022-11-15T00:32:49;11.90;;;9.75;;
1475;SDS011;730;48.870;12.542;2022-11-15T00:35:15;11.80;;;10.60;;
1475;SDS011;730;48.870;12.542;2022-11-15T00:37:42;11.53;;;9.57;;
1475;SDS011;730;48.870;12.542;2022-11-15T00:40:08;13.57;;;10.30;;
1475;SDS011;730;48.870;12.542;2022-11-15T00:42:35;11.38;;;10.25;;
1475;SDS011;730;48.870;12.542;2022-11-15T00:45:04;14.63;;;10.80;;
1475;SDS011;730;48.870;12.542;2022-11-15T00:47:35;12.23;;;10.97;;
1475;SDS011;730;48.870;12.542;2022-11-15T00:50:01;12.43;;;11.18;;
1475;SDS011;730;48.870;12.542;2022-11-15T00:52:27;12.85;;;11.55;;
1475;SDS011;730;48.870;12.542;2022-11-15T00:54:53;13.63;;;12.10;;
1475;SDS011;730;48.870;12.542;2022-11-15T00:57:19;12.57;;;11.30;;
1475;SDS011;730;48.870;12.542;2022-11-15T00:59:45;14.75;;;13.02;;
1475;SDS011;730;48.870;12.542;2022-11-15T01:02:11;22.70;;;17.30;;
1475;SDS011;730;48.870;12.542;2022-11-15T01:04:37;30.15;;;20.38;;
1475;SDS011;730;48.870;12.542;2022-11-15T01:07:04;18.40;;;14.77;;
1475;SDS011;730;48.870;12.542;2022-11-15T01:09:30;13.13;;;11.80;;
1475;SDS011;730;48.870;12.542;2022-11-15T01:11:56;10.47;;;9.43;;
1475;SDS011;730;48.870;12.542;2022-11-15T01:14:22;12.75;;;10.30;;
1475;SDS011;730;48.870;12.542;2022-11-15T01:16:48;12.57;;;10.43;;
1475;SDS011;730;48.870;12.542;2022-11-15T01:19:15;13.85;;;11.10;;
1475;SDS011;730;48.870;12.542;2022-11-15T01:21:41;12.35;;;10.63;;
1475;SDS011;730;48.870;12.542;2022-11-15T01:24:07;10.85;;;9.68;;
1475;SDS011;730;48.870;12.542;2022-11-15T01:26:37;13.23;;;11.13;;
1475;SDS011;730;48.870;12.542;2022-11-15T01:29:03;12.85;;;11.45;;
1475;SDS011;730;48.870;12.542;2022-11-15T01:31:29;12.97;;;11.63;;
1475;SDS011;730;48.870;12.542;2022-11-15T01:33:55;14.98;;;12.10;;
1475;SDS011;730;48.870;12.542;2022-11-15T01:36:22;12.48;;;11.23;;
1475;SDS011;730;48.870;12.542;2022-11-15T01:38:54;12.80;;;11.15;;
1475;SDS011;730;48.870;12.542;2022-11-15T01:41:23;13.52;;;10.75;;
1475;SDS011;730;48.870;12.542;2022-11-15T01:43:53;13.60;;;11.52;;
1475;SDS011;730;48.870;12.542;2022-11-15T01:46:33;13.50;;;12.07;;
1475;SDS011;730;48.870;12.542;2022-11-15T01:49:02;13.68;;;12.27;;
1475;SDS011;730;48.870;12.542;2022-11-15T01:51:37;13.10;;;10.75;;
1475;SDS011;730;48.870;12.542;2022-11-15T01:54:08;13.63;;;11.93;;
1475;SDS011;730;48.870;12.542;2022-11-15T01:56:45;16.48;;;14.77;;
1475;SDS011;730;48.870;12.542;2022-11-15T01:59:19;13.30;;;12.00;;
1475;SDS011;730;48.870;12.542;2022-11-15T02:01:45;13.60;;;11.30;;
1475;SDS011;730;48.870;12.542;2022-11-15T02:04:25;14.40;;;12.15;;
1475;SDS011;730;48.870;12.542;2022-11-15T02:06:53;10.73;;;9.63;;
1475;SDS011;730;48.870;12.542;2022-11-15T02:09:19;13.53;;;10.30;;
1475;SDS011;730;48.870;12.542;2022-11-15T02:11:45;11.05;;;9.90;;
1475;SDS011;730;48.870;12.542;2022-11-15T02:14:13;11.68;;;10.48;;
1475;SDS011;730;48.870;12.542;2022-11-15T02:22:10;10.63;;;9.55;;
1475;SDS011;730;48.870;12.542;2022-11-15T02:25:00;11.85;;;10.57;;
1475;SDS011;730;48.870;12.542;2022-11-15T02:30:47;11.32;;;10.23;;
1475;SDS011;730;48.870;12.542;2022-11-15T02:42:04;14.60;;;13.00;;
1475;SDS011;730;48.870;12.542;2022-11-15T02:44:54;10.45;;;8.85;;
1475;SDS011;730;48.870;12.542;2022-11-15T02:47:23;12.48;;;9.95;;
1475;SDS011;730;48.870;12.542;2022-11-15T02:49:56;11.13;;;9.63;;
1475;SDS011;730;48.870;12.542;2022-11-15T02:52:26;10.90;;;8.65;;
1475;SDS011;730;48.870;12.542;2022-11-15T02:54:56;12.25;;;9.50;;
1475;SDS011;730;48.870;12.542;2022-11-15T02:57:38;9.75;;;8.55;;
1475;SDS011;730;48.870;12.542;2022-11-15T03:00:08;9.45;;;8.55;;
1475;SDS011;730;48.870;12.542;2022-11-15T03:05:17;8.98;;;7.97;;
1475;SDS011;730;48.870;12.542;2022-11-15T03:08:12;9.23;;;8.20;;
1475;SDS011;730;48.870;12.542;2022-11-15T03:11:30;8.70;;;7.75;;
1475;SDS011;730;48.870;12.542;2022-11-15T03:19:33;9.93;;;8.85;;
1475;SDS011;730;48.870;12.542;2022-11-15T03:22:10;9.95;;;8.95;;
1475;SDS011;730;48.870;12.542;2022-11-15T03:24:39;11.18;;;9.43;;
1475;SDS011;730;48.870;12.542;2022-11-15T03:27:07;10.45;;;9.25;;
1475;SDS011;730;48.870;12.542;2022-11-15T03:29:37;9.38;;;8.48;;
1475;SDS011;730;48.870;12.542;2022-11-15T03:32:11;9.82;;;8.93;;
1475;SDS011;730;48.870;12.542;2022-11-15T03:34:42;8.85;;;7.97;;
1475;SDS011;730;48.870;12.542;2022-11-15T03:37:13;10.95;;;9.82;;
1475;SDS011;730;48.870;12.542;2022-11-15T03:39:42;10.88;;;9.70;;
1475;SDS011;730;48.870;12.542;2022-11-15T03:42:22;11.02;;;9.82;;
1475;SDS011;730;48.870;12.542;2022-11-15T03:45:10;10.48;;;9.32;;
1475;SDS011;730;48.870;12.542;2022-11-15T03:50:23;10.90;;;9.80;;
1475;SDS011;730;48.870;12.542;2022-11-15T03:52:50;12.63;;;11.38;;
1475;SDS011;730;48.870;12.542;2022-11-15T03:55:17;11.25;;;10.15;;
1475;SDS011;730;48.870;12.542;2022-11-15T03:57:45;11.00;;;9.40;;
1475;SDS011;730;48.870;12.542;2022-11-15T04:00:13;9.98;;;8.98;;
1475;SDS011;730;48.870;12.542;2022-11-15T04:02:39;11.32;;;9.20;;
1475;SDS011;730;48.870;12.542;2022-11-15T04:05:06;10.60;;;9.50;;
1475;SDS011;730;48.870;12.542;2022-11-15T04:07:32;10.30;;;9.35;;
1475;SDS011;730;48.870;12.542;2022-11-15T04:09:58;10.90;;;9.90;;
1475;SDS011;730;48.870;12.542;2022-11-15T04:12:27;9.65;;;8.75;;
1475;SDS011;730;48.870;12.542;2022-11-15T04:15:00;10.23;;;9.13;;
1475;SDS011;730;48.870;12.542;2022-11-15T04:17:34;10.30;;;8.70;;
1475;SDS011;730;48.870;12.542;2022-11-15T04:20:04;10.50;;;8.18;;
1475;SDS011;730;48.870;12.542;2022-11-15T04:22:57;9.60;;;8.70;;
1475;SDS011;730;48.870;12.542;2022-11-15T04:25:44;9.73;;;8.45;;
1475;SDS011;730;48.870;12.542;2022-11-15T04:28:11;10.13;;;8.48;;
1475;SDS011;730;48.870;12.542;2022-11-15T04:30:37;9.40;;;8.45;;
1475;SDS011;730;48.870;12.542;2022-11-15T04:33:03;9.88;;;8.95;;
1475;SDS011;730;48.870;12.542;2022-11-15T04:35:29;9.45;;;8.55;;
1475;SDS011;730;48.870;12.542;2022-11-15T04:37:56;10.32;;;8.27;;
1475;SDS011;730;48.870;12.542;2022-11-15T04:40:22;9.98;;;8.98;;
1475;SDS011;730;48.870;12.542;2022-11-15T04:42:49;9.73;;;8.50;;
1475;SDS011;730;48.870;12.542;2022-11-15T04:45:15;9.70;;;8.70;;
1475;SDS011;730;48.870;12.542;2022-11-15T04:47:44;9.55;;;8.55;;
1475;SDS011;730;48.870;12.542;2022-11-15T04:50:12;15.60;;;13.35;;
1475;SDS011;730;48.870;12.542;2022-11-15T04:52:42;11.70;;;9.93;;
1475;SDS011;730;48.870;12.542;2022-11-15T04:55:14;11.55;;;9.80;;
1475;SDS011;730;48.870;12.542;2022-11-15T04:57:41;10.45;;;9.20;;
1475;SDS011;730;48.870;12.542;2022-11-15T05:00:08;9.35;;;8.40;;
1475;SDS011;730;48.870;12.542;2022-11-15T05:02:37;10.10;;;8.77;;
1475;SDS011;730;48.870;12.542;2022-11-15T05:05:21;10.75;;;8.60;;
1475;SDS011;730;48.870;12.542;2022-11-15T05:07:48;9.95;;;8.93;;
1475;SDS011;730;48.870;12.542;2022-11-15T05:10:14;9.50;;;8.33;;
1475;SDS011;730;48.870;12.542;2022-11-15T05:12:40;9.45;;;7.88;;
1475;SDS011;730;48.870;12.542;2022-11-15T05:15:07;8.98;;;8.07;;
1475;SDS011;730;48.870;12.542;2022-11-15T05:17:36;10.15;;;9.15;;
1475;SDS011;730;48.870;12.542;2022-11-15T05:20:02;11.23;;;9.10;;
1475;SDS011;730;48.870;12.542;2022-11-15T05:22:28;8.95;;;8.05;;
1475;SDS011;730;48.870;12.542;2022-11-15T05:24:54;10.90;;;8.48;;
1475;SDS011;730;48.870;12.542;2022-11-15T05:27:20;11.57;;;8.90;;
1475;SDS011;730;48.870;12.542;2022-11-15T05:29:47;9.68;;;8.75;;
1475;SDS011;730;48.870;12.542;2022-11-15T05:32:13;9.30;;;8.30;;
1475;SDS011;730;48.870;12.542;2022-11-15T05:34:39;10.20;;;8.88;;
1475;SDS011;730;48.870;12.542;2022-11-15T05:37:05;9.70;;;8.70;;
1475;SDS011;730;48.870;12.542;2022-11-15T05:39:31;9.48;;;8.48;;
1475;SDS011;730;48.870;12.542;2022-11-15T05:42:06;11.00;;;9.90;;
1475;SDS011;730;48.870;12.542;2022-11-15T05:44:41;9.85;;;8.85;;
1475;SDS011;730;48.870;12.542;2022-11-15T05:47:11;10.90;;;9.93;;
1475;SDS011;730;48.870;12.542;2022-11-15T05:49:42;9.07;;;8.13;;
1475;SDS011;730;48.870;12.542;2022-11-15T05:52:11;9.38;;;8.57;;
1475;SDS011;730;48.870;12.542;2022-11-15T05:54:41;8.55;;;7.38;;
1475;SDS011;730;48.870;12.542;2022-11-15T05:57:08;10.00;;;9.00;;
1475;SDS011;730;48.870;12.542;2022-11-15T05:59:34;9.73;;;8.82;;
1475;SDS011;730;48.870;12.542;2022-11-15T06:02:01;9.00;;;8.18;;
1475;SDS011;730;48.870;12.542;2022-11-15T06:04:27;10.45;;;9.35;;
1475;SDS011;730;48.870;12.542;2022-11-15T06:06:53;11.80;;;9.52;;
1475;SDS011;730;48.870;12.542;2022-11-15T06:09:20;9.38;;;8.48;;
1475;SDS011;730;48.870;12.542;2022-11-15T06:11:46;11.88;;;10.75;;
1475;SDS011;730;48.870;12.542;2022-11-15T06:14:13;17.08;;;14.60;;
1475;SDS011;730;48.870;12.542;2022-11-15T06:16:39;15.20;;;13.63;;
1475;SDS011;730;48.870;12.542;2022-11-15T06:19:06;12.70;;;11.45;;
1475;SDS011;730;48.870;12.542;2022-11-15T06:21:32;11.35;;;10.25;;
1475;SDS011;730;48.870;12.542;2022-11-15T06:23:58;10.40;;;9.40;;
1475;SDS011;730;48.870;12.542;2022-11-15T06:26:24;13.07;;;11.65;;
1475;SDS011;730;48.870;12.542;2022-11-15T06:28:54;10.77;;;9.60;;
1475;SDS011;730;48.870;12.542;2022-11-15T06:31:20;12.10;;;10.93;;
1475;SDS011;730;48.870;12.542;2022-11-15T06:33:46;10.65;;;9.55;;
1475;SDS011;730;48.870;12.542;2022-11-15T06:36:14;12.85;;;10.60;;
1475;SDS011;730;48.870;12.542;2022-11-15T06:38:42;11.68;;;10.50;;
1475;SDS011;730;48.870;12.542;2022-11-15T06:41:12;10.80;;;9.80;;
1475;SDS011;730;48.870;12.542;2022-11-15T06:43:39;10.75;;;8.85;;
1475;SDS011;730;48.870;12.542;2022-11-15T06:46:05;9.35;;;8.38;;
1475;SDS011;730;48.870;12.542;2022-11-15T06:48:32;8.75;;;7.95;;
1475;SDS011;730;48.870;12.542;2022-11-15T06:51:00;15.68;;;14.02;;
1475;SDS011;730;48.870;12.542;2022-11-15T06:53:27;20.48;;;15.70;;
1475;SDS011;730;48.870;12.542;2022-11-15T06:55:57;9.00;;;8.07;;
1475;SDS011;730;48.870;12.542;2022-11-15T06:58:24;8.65;;;7.80;;
1475;SDS011;730;48.870;12.542;2022-11-15T07:00:50;8.13;;;6.93;;
1475;SDS011;730;48.870;12.542;2022-11-15T07:03:16;7.20;;;6.50;;
1475;SDS011;730;48.870;12.542;2022-11-15T07:05:50;7.72;;;6.95;;
1475;SDS011;730;48.870;12.542;2022-11-15T07:08:21;8.75;;;7.85;;
1475;SDS011;730;48.870;12.542;2022-11-15T07:10:47;7.53;;;6.93;;
1475;SDS011;730;48.870;12.542;2022-11-15T07:13:13;7.95;;;7.25;;
1475;SDS011;730;48.870;12.542;2022-11-15T07:15:40;7.25;;;6.55;;
1475;SDS011;730;48.870;12.542;2022-11-15T07:18:06;8.73;;;7.97;;
1475;SDS011;730;48.870;12.542;2022-11-15T07:20:32;7.53;;;6.90;;
1475;SDS011;730;48.870;12.542;2022-11-15T07:23:02;8.48;;;7.78;;
1475;SDS011;730;48.870;12.542;2022-11-15T07:25:29;7.97;;;7.28;;
1475;SDS011;730;48.870;12.542;2022-11-15T07:27:58;9.30;;;7.73;;
1475;SDS011;730;48.870;12.542;2022-11-15T07:30:25;12.13;;;10.50;;
1475;SDS011;730;48.870;12.542;2022-11-15T07:35:22;21.97;;;14.20;;
1475;SDS011;730;48.870;12.542;2022-11-15T07:37:56;13.63;;;11.93;;
1475;SDS011;730;48.870;12.542;2022-11-15T07:40:24;12.17;;;10.87;;
1475;SDS011;730;48.870;12.542;2022-11-15T07:42:51;10.20;;;8.90;;
1475;SDS011;730;48.870;12.542;2022-11-15T07:45:22;6.90;;;6.27;;
1475;SDS011;730;48.870;12.542;2022-11-15T07:47:49;7.83;;;7.03;;
1475;SDS011;730;48.870;12.542;2022-11-15T07:50:16;6.70;;;6.10;;
1475;SDS011;730;48.870;12.542;2022-11-15T07:52:42;8.37;;;7.40;;
1475;SDS011;730;48.870;12.542;2022-11-15T07:55:09;8.20;;;6.57;;
1475;SDS011;730;48.870;12.542;2022-11-15T07:57:35;7.00;;;6.30;;
1475;SDS011;730;48.870;12.542;2022-11-15T08:00:03;7.30;;;6.70;;
1475;SDS011;730;48.870;12.542;2022-11-15T08:02:30;8.60;;;7.70;;
1475;SDS011;730;48.870;12.542;2022-11-15T08:04:56;10.90;;;7.67;;
1475;SDS011;730;48.870;12.542;2022-11-15T08:07:23;8.97;;;8.07;;
1475;SDS011;730;48.870;12.542;2022-11-15T08:09:49;8.00;;;7.30;;
1475;SDS011;730;48.870;12.542;2022-11-15T08:12:15;7.83;;;7.13;;
1475;SDS011;730;48.870;12.542;2022-11-15T08:14:41;8.60;;;7.70;;
1475;SDS011;730;48.870;12.542;2022-11-15T08:17:07;9.70;;;8.80;;
1475;SDS011;730;48.870;12.542;2022-11-15T08:19:34;8.50;;;7.70;;
1475;SDS011;730;48.870;12.542;2022-11-15T08:22:00;9.30;;;8.50;;
1475;SDS011;730;48.870;12.542;2022-11-15T08:24:26;10.03;;;8.17;;
1475;SDS011;730;48.870;12.542;2022-11-15T08:26:52;9.43;;;8.53;;
1475;SDS011;730;48.870;12.542;2022-11-15T08:29:18;10.50;;;9.20;;
1475;SDS011;730;48.870;12.542;2022-11-15T08:31:45;9.67;;;8.67;;
1475;SDS011;730;48.870;12.542;2022-11-15T08:34:11;8.90;;;8.00;;
1475;SDS011;730;48.870;12.542;2022-11-15T08:36:37;8.90;;;8.00;;
1475;SDS011;730;48.870;12.542;2022-11-15T08:39:03;9.80;;;8.63;;
1475;SDS011;730;48.870;12.542;2022-11-15T08:41:32;9.30;;;8.43;;
1475;SDS011;730;48.870;12.542;2022-11-15T08:44:01;9.63;;;8.50;;
1475;SDS011;730;48.870;12.542;2022-11-15T08:46:27;12.00;;;10.90;;
1475;SDS011;730;48.870;12.542;2022-11-15T08:48:53;10.80;;;8.80;;
1475;SDS011;730;48.870;12.542;2022-11-15T08:51:20;8.73;;;7.90;;
1475;SDS011;730;48.870;12.542;2022-11-15T08:53:46;9.80;;;8.90;;
1475;SDS011;730;48.870;12.542;2022-11-15T08:56:13;10.17;;;8.80;;
1475;SDS011;730;48.870;12.542;2022-11-15T08:58:40;10.30;;;9.30;;
1475;SDS011;730;48.870;12.542;2022-11-15T09:01:14;9.60;;;8.67;;
1475;SDS011;730;48.870;12.542;2022-11-15T09:03:42;10.17;;;8.63;;
1475;SDS011;730;48.870;12.542;2022-11-15T09:06:09;8.57;;;7.77;;
1475;SDS011;730;48.870;12.542;2022-11-15T09:08:35;9.10;;;8.20;;
1475;SDS011;730;48.870;12.542;2022-11-15T09:11:04;9.03;;;8.07;;
1475;SDS011;730;48.870;12.542;2022-11-15T09:13:31;9.03;;;8.13;;
1475;SDS011;730;48.870;12.542;2022-11-15T09:15:58;11.40;;;7.97;;
1475;SDS011;730;48.870;12.542;2022-11-15T09:18:25;9.43;;;7.57;;
1475;SDS011;730;48.870;12.542;2022-11-15T09:20:54;10.37;;;9.37;;
1475;SDS011;730;48.870;12.542;2022-11-15T09:23:22;8.90;;;7.90;;
1475;SDS011;730;48.870;12.542;2022-11-15T09:25:48;9.30;;;8.30;;
1475;SDS011;730;48.870;12.542;2022-11-15T09:28:15;7.87;;;7.00;;
1475;SDS011;730;48.870;12.542;2022-11-15T09:30:41;9.50;;;8.03;;
1475;SDS011;730;48.870;12.542;2022-11-15T09:33:11;7.77;;;7.03;;
1475;SDS011;730;48.870;12.542;2022-11-15T09:35:37;8.10;;;7.30;;
1475;SDS011;730;48.870;12.542;2022-11-15T09:38:04;8.67;;;7.83;;
1475;SDS011;730;48.870;12.542;2022-11-15T09:40:31;7.90;;;7.10;;
1475;SDS011;730;48.870;12.542;2022-11-15T09:46:02;8.30;;;7.50;;
1475;SDS011;730;48.870;12.542;2022-11-15T09:54:21;8.40;;;7.50;;
1475;SDS011;730;48.870;12.542;2022-11-15T09:59:40;8.80;;;7.90;;
1475;SDS011;730;48.870;12.542;2022-11-15T10:05:28;10.57;;;9.47;;
1475;SDS011;730;48.870;12.542;2022-11-15T10:10:39;9.90;;;8.90;;
1475;SDS011;730;48.870;12.542;2022-11-15T10:13:30;9.83;;;8.93;;
1475;SDS011;730;48.870;12.542;2022-11-15T10:18:56;11.07;;;10.00;;
1475;SDS011;730;48.870;12.542;2022-11-15T10:21:50;10.00;;;9.00;;
1475;SDS011;730;48.870;12.542;2022-11-15T10:24:26;9.03;;;8.13;;
1475;SDS011;730;48.870;12.542;2022-11-15T10:26:54;10.30;;;9.23;;
1475;SDS011;730;48.870;12.542;2022-11-15T10:29:22;11.63;;;9.63;;
1475;SDS011;730;48.870;12.542;2022-11-15T10:31:50;9.80;;;8.80;;
1475;SDS011;730;48.870;12.542;2022-11-15T10:34:17;10.17;;;9.10;;
1475;SDS011;730;48.870;12.542;2022-11-15T10:36:46;9.73;;;8.63;;
1475;SDS011;730;48.870;12.542;2022-11-15T10:39:19;10.80;;;9.70;;
1475;SDS011;730;48.870;12.542;2022-11-15T10:41:45;10.07;;;9.10;;
1475;SDS011;730;48.870;12.542;2022-11-15T10:44:19;10.40;;;9.30;;
1475;SDS011;730;48.870;12.542;2022-11-15T10:49:22;9.80;;;8.80;;
1475;SDS011;730;48.870;12.542;2022-11-15T10:51:52;10.07;;;9.17;;
1475;SDS011;730;48.870;12.542;2022-11-15T10:57:06;9.50;;;8.57;;
1475;SDS011;730;48.870;12.542;2022-11-15T10:59:39;10.27;;;9.27;;
1475;SDS011;730;48.870;12.542;2022-11-15T11:04:55;10.17;;;9.13;;
1475;SDS011;730;48.870;12.542;2022-11-15T11:07:22;8.87;;;8.07;;
1475;SDS011;730;48.870;12.542;2022-11-15T11:10:36;9.27;;;8.37;;
1475;SDS011;730;48.870;12.542;2022-11-15T11:12:44;10.53;;;9.53;;
1475;SDS011;730;48.870;12.542;2022-11-15T11:15:12;10.00;;;9.10;;
1475;SDS011;730;48.870;12.542;2022-11-15T11:20:30;11.13;;;10.07;;
1475;SDS011;730;48.870;12.542;2022-11-15T11:35:08;10.97;;;9.67;;
1475;SDS011;730;48.870;12.542;2022-11-15T11:48:47;12.53;;;11.30;;
1475;SDS011;730;48.870;12.542;2022-11-15T11:51:23;11.50;;;10.30;;
1475;SDS011;730;48.870;12.542;2022-11-15T11:56:32;12.33;;;9.93;;
1475;SDS011;730;48.870;12.542;2022-11-15T11:59:02;12.97;;;11.67;;
1475;SDS011;730;48.870;12.542;2022-11-15T12:01:41;10.77;;;9.67;;
1475;SDS011;730;48.870;12.542;2022-11-15T12:09:44;12.80;;;11.53;;
1475;SDS011;730;48.870;12.542;2022-11-15T12:12:19;11.20;;;10.10;;
1475;SDS011;730;48.870;12.542;2022-11-15T12:14:52;10.57;;;9.47;;
1475;SDS011;730;48.870;12.542;2022-11-15T12:17:36;10.60;;;8.27;;
1475;SDS011;730;48.870;12.542;2022-11-15T12:20:13;10.17;;;9.17;;
1475;SDS011;730;48.870;12.542;2022-11-15T12:25:25;9.30;;;8.50;;
1475;SDS011;730;48.870;12.542;2022-11-15T12:30:54;12.07;;;10.77;;
1475;SDS011;730;48.870;12.542;2022-11-15T12:33:34;11.20;;;10.10;;
1475;SDS011;730;48.870;12.542;2022-11-15T12:36:49;10.03;;;9.13;;
1475;SDS011;730;48.870;12.542;2022-11-15T12:38:52;11.07;;;9.53;;
1475;SDS011;730;48.870;12.542;2022-11-15T12:41:25;15.93;;;10.47;;
1475;SDS011;730;48.870;12.542;2022-11-15T12:43:56;10.40;;;9.30;;
1475;SDS011;730;48.870;12.542;2022-11-15T12:47:21;10.80;;;9.70;;
1475;SDS011;730;48.870;12.542;2022-11-15T13:02:17;9.90;;;9.00;;
1475;SDS011;730;48.870;12.542;2022-11-15T13:04:50;11.23;;;10.23;;
1475;SDS011;730;48.870;12.542;2022-11-15T13:20:25;11.43;;;10.30;;
1475;SDS011;730;48.870;12.542;2022-11-15T13:30:52;10.97;;;9.87;;
1475;SDS011;730;48.870;12.542;2022-11-15T13:33:33;10.10;;;9.20;;
1475;SDS011;730;48.870;12.542;2022-11-15T13:36:02;10.13;;;9.17;;
1475;SDS011;730;48.870;12.542;2022-11-15T13:38:35;12.10;;;11.00;;
1475;SDS011;730;48.870;12.542;2022-11-15T13:41:19;10.93;;;9.83;;
1475;SDS011;730;48.870;12.542;2022-11-15T13:43:48;13.90;;;9.87;;
1475;SDS011;730;48.870;12.542;2022-11-15T13:46:28;10.90;;;9.57;;
1475;SDS011;730;48.870;12.542;2022-11-15T13:54:03;11.03;;;10.03;;
1475;SDS011;730;48.870;12.542;2022-11-15T13:56:40;9.50;;;8.60;;
1475;SDS011;730;48.870;12.542;2022-11-15T13:59:29;10.50;;;8.77;;
1475;SDS011;730;48.870;12.542;2022-11-15T14:04:39;9.63;;;8.77;;
1475;SDS011;730;48.870;12.542;2022-11-15T14:07:23;10.33;;;9.33;;
1475;SDS011;730;48.870;12.542;2022-11-15T14:09:51;10.27;;;9.27;;
1475;SDS011;730;48.870;12.542;2022-11-15T14:12:28;13.17;;;11.80;;
1475;SDS011;730;48.870;12.542;2022-11-15T14:14:55;11.97;;;10.87;;
1475;SDS011;730;48.870;12.542;2022-11-15T14:19:55;9.63;;;8.73;;
1475;SDS011;730;48.870;12.542;2022-11-15T14:22:26;10.40;;;9.00;;
1475;SDS011;730;48.870;12.542;2022-11-15T14:30:38;9.40;;;8.57;;
1475;SDS011;730;48.870;12.542;2022-11-15T14:33:17;9.17;;;8.30;;
1475;SDS011;730;48.870;12.542;2022-11-15T14:35:49;7.90;;;7.20;;
1475;SDS011;730;48.870;12.542;2022-11-15T14:38:16;9.97;;;8.97;;
1475;SDS011;730;48.870;12.542;2022-11-15T14:40:43;10.40;;;9.40;;
1475;SDS011;730;48.870;12.542;2022-11-15T14:43:10;10.83;;;9.90;;
1475;SDS011;730;48.870;12.542;2022-11-15T14:45:37;9.83;;;8.97;;
1475;SDS011;730;48.870;12.542;2022-11-15T14:48:04;9.93;;;8.90;;
1475;SDS011;730;48.870;12.542;2022-11-15T14:50:30;9.70;;;8.80;;
1475;SDS011;730;48.870;12.542;2022-11-15T14:52:58;9.37;;;8.53;;
1475;SDS011;730;48.870;12.542;2022-11-15T14:55:28;9.63;;;8.73;;
1475;SDS011;730;48.870;12.542;2022-11-15T14:57:58;9.77;;;8.87;;
1475;SDS011;730;48.870;12.542;2022-11-15T15:00:25;10.63;;;9.63;;
1475;SDS011;730;48.870;12.542;2022-11-15T15:02:53;9.63;;;8.73;;
1475;SDS011;730;48.870;12.542;2022-11-15T15:05:23;9.60;;;8.60;;
1475;SDS011;730;48.870;12.542;2022-11-15T15:08:01;10.07;;;8.37;;
1475;SDS011;730;48.870;12.542;2022-11-15T15:10:30;10.43;;;9.37;;
1475;SDS011;730;48.870;12.542;2022-11-15T15:12:59;12.10;;;10.80;;
1475;SDS011;730;48.870;12.542;2022-11-15T15:15:26;9.97;;;8.97;;
1475;SDS011;730;48.870;12.542;2022-11-15T15:17:56;11.80;;;9.57;;
1475;SDS011;730;48.870;12.542;2022-11-15T15:20:23;13.17;;;10.40;;
1475;SDS011;730;48.870;12.542;2022-11-15T15:22:49;11.00;;;9.90;;
1475;SDS011;730;48.870;12.542;2022-11-15T15:28:11;12.43;;;11.17;;
1475;SDS011;730;48.870;12.542;2022-11-15T15:30:38;12.40;;;11.10;;
1475;SDS011;730;48.870;12.542;2022-11-15T15:33:05;12.93;;;11.70;;
1475;SDS011;730;48.870;12.542;2022-11-15T15:35:32;15.90;;;14.23;;
1475;SDS011;730;48.870;12.542;2022-11-15T15:37:59;18.40;;;16.40;;
1475;SDS011;730;48.870;12.542;2022-11-15T15:40:27;17.83;;;15.70;;
1475;SDS011;730;48.870;12.542;2022-11-15T15:42:55;26.70;;;21.17;;
1475;SDS011;730;48.870;12.542;2022-11-15T15:45:21;23.90;;;19.57;;
1475;SDS011;730;48.870;12.542;2022-11-15T15:47:47;39.83;;;27.30;;
1475;SDS011;730;48.870;12.542;2022-11-15T15:50:22;32.43;;;23.00;;
1475;SDS011;730;48.870;12.542;2022-11-15T15:52:54;19.20;;;17.17;;
1475;SDS011;730;48.870;12.542;2022-11-15T15:55:23;17.70;;;14.00;;
1475;SDS011;730;48.870;12.542;2022-11-15T15:57:49;15.33;;;13.13;;
1475;SDS011;730;48.870;12.542;2022-11-15T16:00:16;15.10;;;12.70;;
1475;SDS011;730;48.870;12.542;2022-11-15T16:02:43;14.40;;;12.10;;
1475;SDS011;730;48.870;12.542;2022-11-15T16:05:10;16.37;;;13.13;;
1475;SDS011;730;48.870;12.542;2022-11-15T16:07:37;13.17;;;11.60;;
1475;SDS011;730;48.870;12.542;2022-11-15T16:12:54;16.93;;;15.00;;
1475;SDS011;730;48.870;12.542;2022-11-15T16:15:21;15.90;;;14.30;;
1475;SDS011;730;48.870;12.542;2022-11-15T16:17:50;17.40;;;15.17;;
1475;SDS011;730;48.870;12.542;2022-11-15T16:20:34;15.83;;;13.60;;
1475;SDS011;730;48.870;12.542;2022-11-15T16:23:06;17.20;;;15.33;;
1475;SDS011;730;48.870;12.542;2022-11-15T16:25:34;18.17;;;16.37;;
1475;SDS011;730;48.870;12.542;2022-11-15T16:28:05;24.87;;;21.87;;
1475;SDS011;730;48.870;12.542;2022-11-15T16:31:04;21.50;;;19.20;;
1475;SDS011;730;48.870;12.542;2022-11-15T16:33:34;20.30;;;17.60;;
1475;SDS011;730;48.870;12.542;2022-11-15T16:36:01;20.13;;;17.67;;
1475;SDS011;730;48.870;12.542;2022-11-15T16:38:28;17.87;;;15.97;;
1475;SDS011;730;48.870;12.542;2022-11-15T16:40:54;18.17;;;16.30;;
1475;SDS011;730;48.870;12.542;2022-11-15T16:43:21;21.23;;;16.60;;
1475;SDS011;730;48.870;12.542;2022-11-15T16:45:47;18.23;;;15.90;;
1475;SDS011;730;48.870;12.542;2022-11-15T16:48:25;18.73;;;16.47;;
1475;SDS011;730;48.870;12.542;2022-11-15T16:50:56;14.30;;;12.50;;
1475;SDS011;730;48.870;12.542;2022-11-15T16:53:24;15.90;;;13.80;;
1475;SDS011;730;48.870;12.542;2022-11-15T16:55:51;18.97;;;14.77;;
1475;SDS011;730;48.870;12.542;2022-11-15T16:58:17;16.20;;;12.83;;
1475;SDS011;730;48.870;12.542;2022-11-15T17:00:43;17.77;;;13.63;;
1475;SDS011;730;48.870;12.542;2022-11-15T17:03:09;13.87;;;11.57;;
1475;SDS011;730;48.870;12.542;2022-11-15T17:05:35;16.03;;;12.60;;
1475;SDS011;730;48.870;12.542;2022-11-15T17:08:01;11.43;;;9.80;;
1475;SDS011;730;48.870;12.542;2022-11-15T17:10:28;11.87;;;9.93;;
1475;SDS011;730;48.870;12.542;2022-11-15T17:12:54;16.80;;;13.33;;
1475;SDS011;730;48.870;12.542;2022-11-15T17:15:20;13.50;;;12.20;;
1475;SDS011;730;48.870;12.542;2022-11-15T17:17:52;15.13;;;13.10;;
1475;SDS011;730;48.870;12.542;2022-11-15T17:20:20;15.00;;;13.43;;
1475;SDS011;730;48.870;12.542;2022-11-15T17:22:47;14.07;;;12.63;;
1475;SDS011;730;48.870;12.542;2022-11-15T17:25:13;14.00;;;12.60;;
1475;SDS011;730;48.870;12.542;2022-11-15T17:27:40;18.03;;;16.23;;
1475;SDS011;730;48.870;12.542;2022-11-15T17:30:06;17.23;;;14.97;;
1475;SDS011;730;48.870;12.542;2022-11-15T17:32:36;17.43;;;15.60;;
1475;SDS011;730;48.870;12.542;2022-11-15T17:35:04;15.40;;;13.80;;
1475;SDS011;730;48.870;12.542;2022-11-15T17:37:32;14.80;;;13.00;;
1475;SDS011;730;48.870;12.542;2022-11-15T17:39:58;14.43;;;12.70;;
1475;SDS011;730;48.870;12.542;2022-11-15T17:42:24;12.73;;;11.53;;
1475;SDS011;730;48.870;12.542;2022-11-15T17:44:50;12.73;;;11.37;;
1475;SDS011;730;48.870;12.542;2022-11-15T17:47:16;12.47;;;11.17;;
1475;SDS011;730;48.870;12.542;2022-11-15T17:49:42;11.07;;;9.93;;